Time;durP1;ratioP1;P1;durP2;ratioP2;P2;SDS_P1;SDS_P2;PMS_P1;PMS_P2;Temp;Humidity;BMP_temperature;BMP_pressure;BME280_temperature;BME280_humidity;BME280_pressure;Samples;Min_cycle;Max_cycle;Signal;HPM_P1;HPM_P2
2020/12/18 00:01:12;;;;;;;12.40;5.95;;;;;;;4.33;93.13;97282.78;4963092;28;20292;-39
2020/12/18 00:03:39;;;;;;;9.02;5.60;;;;;;;4.39;92.81;97286.91;4957157;28;20613;-39
2020/12/18 00:06:06;;;;;;;21.50;5.68;;;;;;;4.38;92.92;97292.94;4972747;28;20740;-49
2020/12/18 00:08:33;;;;;;;15.95;5.78;;;;;;;4.31;93.63;97292.28;4960352;28;20304;-44
2020/12/18 00:10:59;;;;;;;15.20;7.35;;;;;;;4.23;93.13;97288.19;4955760;28;20312;-44
2020/12/18 00:13:27;;;;;;;18.55;7.70;;;;;;;4.06;93.02;97285.22;4956267;28;20337;-44
2020/12/18 00:15:54;;;;;;;11.35;6.32;;;;;;;4.08;93.30;97293.75;4955941;28;20206;-44
2020/12/18 00:18:21;;;;;;;11.23;5.43;;;;;;;4.11;93.40;97291.09;4951275;28;20301;-44
2020/12/18 00:20:54;;;;;;;12.27;6.20;;;;;;;4.15;93.28;97295.28;4971034;28;20520;-44
2020/12/18 00:23:21;;;;;;;14.68;6.93;;;;;;;4.10;93.16;97291.97;4962031;28;20611;-43
2020/12/18 00:25:49;;;;;;;10.25;6.55;;;;;;;4.01;93.56;97292.22;4969165;28;20199;-44
2020/12/18 00:28:17;;;;;;;13.52;6.20;;;;;;;3.99;94.00;97294.00;4963257;28;20224;-44
2020/12/18 00:30:46;;;;;;;13.05;7.30;;;;;;;4.01;93.96;97289.63;4956848;28;20204;-44
2020/12/18 00:33:14;;;;;;;13.45;6.25;;;;;;;3.95;94.08;97292.38;4951557;28;20677;-44
2020/12/18 00:35:41;;;;;;;12.15;5.90;;;;;;;4.00;93.47;97295.69;4956855;28;20206;-47
2020/12/18 00:38:08;;;;;;;15.90;7.40;;;;;;;4.00;93.74;97300.81;4955721;28;20771;-43
2020/12/18 00:40:35;;;;;;;39.47;7.75;;;;;;;3.91;93.87;97303.63;4957086;28;20641;-44
2020/12/18 00:43:01;;;;;;;26.50;8.25;;;;;;;3.87;94.17;97299.44;4957523;28;20741;-46
2020/12/18 00:45:28;;;;;;;49.88;8.18;;;;;;;3.91;93.97;97295.91;4960830;28;20753;-44
2020/12/18 00:47:56;;;;;;;132.77;10.93;;;;;;;3.84;94.98;97304.69;4974648;28;20730;-45
2020/12/18 00:50:23;;;;;;;44.63;8.30;;;;;;;3.92;95.17;97307.03;4975837;28;20320;-44
2020/12/18 00:52:50;;;;;;;35.92;8.05;;;;;;;3.86;95.72;97300.31;4974986;28;21117;-44
2020/12/18 00:55:16;;;;;;;86.18;8.30;;;;;;;3.81;96.00;97302.16;4965369;28;20308;-45
2020/12/18 00:57:43;;;;;;;59.00;7.68;;;;;;;3.75;96.03;97299.72;4959617;28;20249;-44
2020/12/18 01:00:10;;;;;;;31.33;8.20;;;;;;;3.95;95.29;97312.97;4971624;28;20225;-44
2020/12/18 01:02:37;;;;;;;33.10;8.13;;;;;;;3.85;94.80;97313.22;4960573;28;20684;-44
2020/12/18 01:05:04;;;;;;;13.18;6.00;;;;;;;3.73;94.16;97322.09;4958183;28;20670;-44
2020/12/18 01:07:31;;;;;;;44.70;6.65;;;;;;;3.71;93.91;97317.84;4960348;28;20232;-44
2020/12/18 01:09:58;;;;;;;37.80;8.20;;;;;;;3.68;94.72;97323.91;4957420;28;20786;-49
2020/12/18 01:12:25;;;;;;;40.50;7.10;;;;;;;3.41;95.55;97321.13;4959081;28;20194;-44
2020/12/18 01:14:52;;;;;;;51.17;9.27;;;;;;;3.15;94.90;97326.84;4958746;28;20222;-44
2020/12/18 01:17:18;;;;;;;55.13;8.55;;;;;;;2.91;96.59;97327.38;4964827;28;20245;-44
2020/12/18 01:19:45;;;;;;;20.35;6.18;;;;;;;3.00;97.64;97324.59;4958533;28;20304;-44
2020/12/18 01:22:14;;;;;;;11.45;7.00;;;;;;;3.10;97.18;97323.53;4968867;28;20729;-43
2020/12/18 01:24:41;;;;;;;17.50;6.20;;;;;;;3.21;96.62;97321.59;4959702;28;20226;-44
2020/12/18 01:29:47;;;;;;;8.15;4.90;;;;;;;3.24;96.14;97320.69;4902243;29;20259;-38
2020/12/18 01:32:15;;;;;;;6.75;4.60;;;;;;;3.31;95.64;97323.06;4896839;29;20279;-38
2020/12/18 01:34:43;;;;;;;6.38;4.50;;;;;;;3.38;95.74;97329.75;4901811;29;20325;-38
2020/12/18 01:37:11;;;;;;;6.88;4.97;;;;;;;3.36;95.70;97323.81;4902353;29;20680;-38
2020/12/18 01:39:38;;;;;;;6.60;4.63;;;;;;;3.36;94.73;97326.38;4901594;29;20265;-38
2020/12/18 01:42:06;;;;;;;26.65;5.70;;;;;;;3.32;94.13;97323.91;4901461;29;20201;-38
2020/12/18 01:44:33;;;;;;;8.60;4.25;;;;;;;3.30;94.47;97328.25;4888868;29;20720;-38
2020/12/18 01:46:59;;;;;;;6.10;4.40;;;;;;;3.26;94.70;97324.91;4882775;29;20193;-38
2020/12/18 01:49:27;;;;;;;7.75;4.35;;;;;;;3.27;94.85;97320.59;4893201;29;20621;-38
2020/12/18 01:51:56;;;;;;;8.82;4.45;;;;;;;3.17;94.86;97329.41;4901760;29;20584;-38
2020/12/18 01:54:24;;;;;;;30.83;6.45;;;;;;;3.11;94.62;97325.25;4902888;29;20230;-38
2020/12/18 01:56:53;;;;;;;17.80;6.25;;;;;;;2.91;95.23;97317.09;4900183;29;20495;-40
2020/12/18 01:59:20;;;;;;;38.10;5.90;;;;;;;2.86;94.91;97321.47;4892290;29;20692;-38
2020/12/18 02:01:47;;;;;;;8.25;5.10;;;;;;;2.90;95.01;97311.97;4881885;29;20193;-38
2020/12/18 02:04:14;;;;;;;7.82;4.47;;;;;;;2.95;95.06;97305.84;4887162;29;20296;-38
2020/12/18 02:06:46;;;;;;;5.50;4.18;;;;;;;2.96;95.31;97310.16;4901167;29;20823;-38
2020/12/18 02:09:13;;;;;;;5.93;4.13;;;;;;;2.92;94.76;97317.94;4899914;29;20228;-38
2020/12/18 02:11:40;;;;;;;6.88;3.88;;;;;;;3.05;94.27;97322.78;4907805;29;20193;-44
2020/12/18 02:14:12;;;;;;;6.25;4.75;;;;;;;3.09;94.12;97326.97;4898613;29;20250;-49
2020/12/18 02:16:39;;;;;;;16.88;5.47;;;;;;;2.90;94.11;97333.41;4900291;29;20281;-44
2020/12/18 02:19:09;;;;;;;30.67;6.40;;;;;;;2.68;94.53;97321.84;4900908;29;20620;-42
2020/12/18 02:21:37;;;;;;;51.05;8.18;;;;;;;2.40;95.56;97297.56;4900403;29;20552;-42
2020/12/18 02:24:03;;;;;;;56.83;6.97;;;;;;;2.29;96.26;97314.06;4899669;29;20228;-42
2020/12/18 02:26:31;;;;;;;52.65;6.43;;;;;;;2.35;96.81;97319.91;4900924;29;20580;-43
2020/12/18 02:28:58;;;;;;;18.63;6.78;;;;;;;2.48;96.77;97321.38;4902503;29;20252;-42
2020/12/18 02:31:25;;;;;;;12.02;5.70;;;;;;;2.49;96.42;97320.50;4900019;29;20872;-43
2020/12/18 02:33:52;;;;;;;26.15;6.68;;;;;;;2.47;96.44;97317.13;4893245;29;20803;-43
2020/12/18 02:36:25;;;;;;;21.75;6.10;;;;;;;2.48;96.42;97312.81;4881675;29;20740;-43
2020/12/18 02:38:56;;;;;;;103.78;9.45;;;;;;;2.47;96.56;97301.72;4887288;29;20228;-43
2020/12/18 02:41:23;;;;;;;9.40;5.38;;;;;;;2.45;97.13;97305.19;4900922;29;20354;-43
2020/12/18 02:43:51;;;;;;;21.25;7.65;;;;;;;2.57;96.11;97310.09;4893154;29;20756;-42
2020/12/18 02:46:18;;;;;;;41.05;6.28;;;;;;;2.64;95.39;97312.50;4881504;29;20201;-42
2020/12/18 02:48:46;;;;;;;20.40;6.30;;;;;;;2.59;95.32;97308.34;4886848;29;20636;-43
2020/12/18 02:51:13;;;;;;;13.15;6.38;;;;;;;2.52;95.22;97302.50;4899560;29;20585;-43
2020/12/18 02:53:39;;;;;;;28.45;5.50;;;;;;;2.65;95.17;97309.06;4899749;29;20612;-42
2020/12/18 02:56:06;;;;;;;11.57;6.93;;;;;;;2.63;95.19;97305.69;4901906;29;20201;-43
2020/12/18 02:58:33;;;;;;;11.52;6.22;;;;;;;2.68;95.11;97303.00;4899607;29;20224;-43
2020/12/18 03:01:01;;;;;;;10.40;6.25;;;;;;;2.75;94.95;97300.31;4900981;29;20229;-42
2020/12/18 03:03:27;;;;;;;10.32;5.25;;;;;;;2.68;94.57;97298.72;4899824;29;20579;-44
2020/12/18 03:05:54;;;;;;;14.27;5.55;;;;;;;2.78;94.34;97299.41;4901385;29;20677;-43
2020/12/18 03:08:21;;;;;;;29.17;6.25;;;;;;;2.73;94.67;97309.75;4900086;29;20339;-42
2020/12/18 03:10:48;;;;;;;11.40;5.75;;;;;;;2.72;95.25;97309.78;4899887;29;20821;-43
2020/12/18 03:13:15;;;;;;;14.80;6.38;;;;;;;2.77;95.18;97311.38;4897675;29;20201;-43
2020/12/18 03:15:41;;;;;;;14.82;6.57;;;;;;;2.81;94.24;97310.44;4881333;29;20224;-43
2020/12/18 03:18:09;;;;;;;9.18;5.90;;;;;;;2.79;94.86;97306.22;4881536;29;20710;-49
2020/12/18 03:20:36;;;;;;;10.77;6.22;;;;;;;2.94;94.57;97306.72;4899847;29;20288;-44
2020/12/18 03:23:03;;;;;;;7.18;5.35;;;;;;;3.01;94.16;97303.16;4898636;29;20197;-44
2020/12/18 03:25:30;;;;;;;7.57;5.25;;;;;;;3.12;94.29;97310.66;4900411;29;20492;-44
2020/12/18 03:27:56;;;;;;;12.48;5.28;;;;;;;3.22;93.69;97312.97;4900663;29;20729;-44
2020/12/18 03:30:25;;;;;;;6.53;4.40;;;;;;;3.29;93.62;97304.25;4899700;29;20265;-44
2020/12/18 03:32:52;;;;;;;7.20;5.18;;;;;;;3.35;93.68;97298.13;4899217;29;20807;-45
2020/12/18 03:35:21;;;;;;;7.80;5.35;;;;;;;3.41;93.95;97306.56;4899107;29;20759;-45
2020/12/18 03:37:48;;;;;;;8.93;5.40;;;;;;;3.52;93.84;97302.00;4899681;29;20723;-44
2020/12/18 03:40:16;;;;;;;6.43;4.28;;;;;;;3.61;93.52;97301.78;4877189;29;20717;-45
2020/12/18 03:42:42;;;;;;;6.47;4.65;;;;;;;3.63;93.53;97299.19;4880985;29;20597;-45
2020/12/18 03:45:09;;;;;;;6.55;4.40;;;;;;;3.64;93.99;97291.44;4897210;29;20260;-44
2020/12/18 03:47:36;;;;;;;6.53;4.47;;;;;;;3.55;94.43;97281.38;4899240;29;20293;-44
2020/12/18 03:50:03;;;;;;;6.38;4.15;;;;;;;3.70;94.41;97282.72;4898787;29;20716;-44
2020/12/18 03:52:31;;;;;;;4.53;3.55;;;;;;;3.75;93.87;97281.69;4899479;29;20827;-44
2020/12/18 03:54:58;;;;;;;5.63;4.32;;;;;;;3.85;94.08;97280.63;4885094;29;20307;-44
2020/12/18 03:57:25;;;;;;;4.63;3.63;;;;;;;3.86;94.70;97278.88;4879987;29;20729;-44
2020/12/18 03:59:52;;;;;;;4.80;3.38;;;;;;;3.90;94.45;97277.91;4894605;29;20331;-44
2020/12/18 04:02:19;;;;;;;5.20;3.50;;;;;;;3.92;93.70;97266.72;4895036;29;20726;-44
2020/12/18 04:04:46;;;;;;;6.63;3.83;;;;;;;3.89;93.83;97271.91;4898848;29;20232;-44
2020/12/18 04:07:14;;;;;;;6.15;3.35;;;;;;;3.84;93.83;97278.06;4898430;29;20258;-44
2020/12/18 04:09:42;;;;;;;7.35;4.40;;;;;;;3.82;93.53;97279.84;4899196;29;20302;-44
2020/12/18 04:12:09;;;;;;;11.48;4.50;;;;;;;3.78;94.30;97288.50;4898310;29;20200;-44
2020/12/18 04:14:36;;;;;;;7.32;4.43;;;;;;;3.76;94.04;97290.28;4885556;29;20580;-44
2020/12/18 04:17:03;;;;;;;7.75;4.75;;;;;;;3.65;93.48;97284.53;4880730;29;20569;-44
2020/12/18 04:19:30;;;;;;;5.05;4.20;;;;;;;3.56;93.52;97295.91;4895203;29;20306;-44
2020/12/18 04:21:58;;;;;;;5.25;4.03;;;;;;;3.50;93.67;97279.75;4901910;29;20908;-49
2020/12/18 04:24:25;;;;;;;7.10;4.53;;;;;;;3.46;93.62;97281.56;4902161;29;20318;-45
2020/12/18 04:26:53;;;;;;;5.97;4.65;;;;;;;3.24;93.93;97238.38;4902460;29;20809;-44
2020/12/18 04:29:20;;;;;;;8.57;4.90;;;;;;;3.30;94.30;97275.06;4894769;29;20607;-44
2020/12/18 04:31:47;;;;;;;10.25;5.10;;;;;;;3.31;94.64;97273.38;4885487;29;20198;-44
2020/12/18 04:34:13;;;;;;;9.13;5.57;;;;;;;3.20;95.04;97237.59;4888187;29;20253;-44
2020/12/18 04:36:41;;;;;;;6.53;4.22;;;;;;;3.59;94.54;97270.09;4902820;29;20234;-44
2020/12/18 04:39:07;;;;;;;7.63;4.28;;;;;;;3.74;94.21;97264.56;4902110;29;20318;-44
2020/12/18 04:41:34;;;;;;;6.05;3.85;;;;;;;3.77;94.30;97261.94;4903873;29;20676;-43
2020/12/18 04:44:03;;;;;;;5.22;3.95;;;;;;;3.75;94.59;97255.97;4908993;29;20762;-44
2020/12/18 04:46:34;;;;;;;9.05;4.68;;;;;;;3.77;94.22;97246.50;4910633;29;20319;-44
2020/12/18 04:49:01;;;;;;;7.60;4.95;;;;;;;3.70;94.69;97250.09;4905707;29;20224;-44
2020/12/18 04:51:28;;;;;;;5.38;3.83;;;;;;;3.73;94.10;97257.75;4906769;29;20235;-44
2020/12/18 04:53:56;;;;;;;6.32;4.22;;;;;;;3.79;94.06;97257.59;4895539;29;20613;-44
2020/12/18 04:56:24;;;;;;;12.50;3.45;;;;;;;3.81;93.38;97258.41;4884083;29;20753;-44
2020/12/18 04:58:53;;;;;;;7.25;4.35;;;;;;;3.79;93.26;97255.03;4883758;29;20268;-44
2020/12/18 05:01:22;;;;;;;7.60;4.70;;;;;;;3.68;92.85;97244.13;4884342;29;20595;-44
2020/12/18 05:03:50;;;;;;;8.43;5.38;;;;;;;3.62;92.82;97257.19;4882993;29;20254;-44
2020/12/18 05:06:17;;;;;;;6.13;4.38;;;;;;;3.59;92.92;97259.81;4883832;29;20653;-44
2020/12/18 05:08:44;;;;;;;7.20;4.55;;;;;;;3.59;92.81;97257.22;4890463;29;20566;-43
2020/12/18 05:11:19;;;;;;;6.95;4.45;;;;;;;3.49;92.49;97257.47;4905161;29;20290;-43
2020/12/18 05:13:46;;;;;;;7.15;4.55;;;;;;;3.34;93.38;97261.28;4902688;29;20234;-44
2020/12/18 05:16:14;;;;;;;7.30;4.88;;;;;;;3.30;93.23;97262.22;4898510;29;20721;-44
2020/12/18 05:18:41;;;;;;;10.40;5.25;;;;;;;3.28;93.37;97266.56;4896846;29;20653;-44
2020/12/18 05:21:08;;;;;;;7.55;4.60;;;;;;;3.11;93.92;97235.25;4879890;29;20240;-44
2020/12/18 05:23:39;;;;;;;6.95;4.50;;;;;;;2.96;93.63;97221.88;4882567;29;20281;-38
2020/12/18 05:26:07;;;;;;;7.97;4.70;;;;;;;3.25;93.52;97255.50;4882096;29;20234;-38
2020/12/18 05:28:39;;;;;;;6.68;4.25;;;;;;;3.18;93.64;97254.81;4889195;29;20260;-38
2020/12/18 05:31:11;;;;;;;6.07;4.15;;;;;;;2.94;93.55;97218.50;4900929;29;20713;-38
2020/12/18 05:33:38;;;;;;;5.00;3.75;;;;;;;3.15;94.05;97265.13;4900401;29;20221;-38
2020/12/18 05:36:06;;;;;;;4.57;3.20;;;;;;;3.16;94.21;97266.81;4900624;29;20655;-38
2020/12/18 05:38:35;;;;;;;6.60;3.70;;;;;;;3.24;93.53;97270.06;4901199;29;20695;-38
2020/12/18 05:41:02;;;;;;;14.25;7.10;;;;;;;3.18;94.50;97257.38;4900564;29;20251;-38
2020/12/18 05:43:36;;;;;;;11.02;6.70;;;;;;;3.30;93.74;97276.81;4900148;29;20294;-38
2020/12/18 05:46:16;;;;;;;9.88;5.72;;;;;;;3.23;93.66;97273.53;4901495;29;20606;-38
2020/12/18 05:48:46;;;;;;;8.55;4.70;;;;;;;3.21;93.50;97275.28;4900527;29;20739;-38
2020/12/18 05:51:27;;;;;;;9.27;5.45;;;;;;;3.21;93.29;97277.00;4901149;29;20663;-38
2020/12/18 05:54:14;;;;;;;12.90;5.85;;;;;;;3.10;92.82;97269.53;4900085;29;20318;-38
2020/12/18 05:56:42;;;;;;;9.27;5.15;;;;;;;3.11;93.27;97280.66;4899888;29;20280;-38
2020/12/18 05:59:11;;;;;;;8.07;5.13;;;;;;;3.01;93.02;97277.44;4899371;29;20675;-38
2020/12/18 06:01:43;;;;;;;7.63;5.22;;;;;;;2.98;93.80;97274.97;4901200;29;20803;-38
2020/12/18 06:04:16;;;;;;;10.30;4.93;;;;;;;2.90;94.30;97269.13;4899648;29;20321;-38
2020/12/18 06:06:46;;;;;;;9.73;5.25;;;;;;;2.89;94.28;97259.75;4900992;29;20208;-42
2020/12/18 06:09:15;;;;;;;6.53;4.45;;;;;;;2.98;93.83;97274.09;4900107;29;20257;-38
2020/12/18 06:11:42;;;;;;;6.70;4.35;;;;;;;2.96;93.90;97266.44;4900389;29;20228;-38
2020/12/18 06:14:11;;;;;;;9.55;4.82;;;;;;;2.97;93.82;97268.13;4900869;29;20313;-38
2020/12/18 06:16:43;;;;;;;7.22;4.15;;;;;;;3.02;93.82;97271.44;4900942;29;20681;-38
2020/12/18 06:19:12;;;;;;;6.47;4.70;;;;;;;3.04;94.16;97266.25;4890188;29;20307;-38
2020/12/18 06:21:39;;;;;;;10.20;3.95;;;;;;;3.08;93.95;97263.59;4881716;29;20199;-38
2020/12/18 06:24:10;;;;;;;8.20;4.38;;;;;;;3.02;94.27;97258.56;4889144;29;20728;-38
2020/12/18 06:26:37;;;;;;;6.70;4.85;;;;;;;2.97;93.80;97263.00;4901061;29;20232;-38
2020/12/18 06:29:06;;;;;;;6.70;4.85;;;;;;;2.91;93.23;97264.81;4902887;29;20228;-43
2020/12/18 06:31:34;;;;;;;5.85;3.75;;;;;;;2.95;93.19;97267.28;4900697;29;20592;-38
2020/12/18 06:34:03;;;;;;;5.10;3.80;;;;;;;2.97;93.58;97259.56;4899442;29;20769;-39
2020/12/18 06:36:57;;;;;;;5.93;3.88;;;;;;;2.98;92.92;97267.25;4899954;29;20284;-39
2020/12/18 06:39:26;;;;;;;6.63;3.50;;;;;;;2.98;93.08;97266.38;4885391;29;20629;-39
2020/12/18 06:42:10;;;;;;;6.05;3.70;;;;;;;2.89;92.70;97267.44;4880506;29;20292;-38
2020/12/18 06:44:37;;;;;;;4.72;3.53;;;;;;;2.87;93.21;97270.94;4893110;29;20716;-38
2020/12/18 06:47:13;;;;;;;6.80;4.03;;;;;;;2.88;93.36;97268.31;4899946;29;20241;-38
2020/12/18 06:50:14;;;;;;;5.10;4.40;;;;;;;2.83;93.25;97269.28;4900232;29;20261;-38
2020/12/18 06:52:50;;;;;;;5.80;3.78;;;;;;;2.80;92.98;97277.06;4899544;29;20229;-39
2020/12/18 06:55:39;;;;;;;7.15;4.63;;;;;;;2.62;93.37;97268.03;4879784;29;20222;-39
2020/12/18 06:58:18;;;;;;;9.07;6.22;;;;;;;2.60;92.82;97276.63;4880844;29;20214;-37
2020/12/18 07:00:50;;;;;;;11.25;5.68;;;;;;;2.46;93.45;97269.22;4883751;29;20293;-38
2020/12/18 07:03:40;;;;;;;9.40;5.80;;;;;;;2.43;94.55;97271.81;4879450;29;20206;-38
2020/12/18 07:06:09;;;;;;;11.60;6.15;;;;;;;2.52;94.30;97271.66;4898881;29;20663;-38
2020/12/18 07:08:38;;;;;;;18.23;10.50;;;;;;;2.61;94.43;97266.34;4898920;29;20803;-38
2020/12/18 07:11:08;;;;;;;8.77;5.55;;;;;;;2.62;94.04;97251.75;4899819;29;20668;-38
2020/12/18 07:13:35;;;;;;;8.77;6.05;;;;;;;2.82;93.81;97267.59;4895267;29;20645;-39
2020/12/18 07:16:07;;;;;;;6.60;4.95;;;;;;;2.86;94.08;97272.63;4880519;29;20708;-39
2020/12/18 07:18:36;;;;;;;11.60;4.95;;;;;;;2.94;94.08;97273.31;4884608;29;20768;-39
2020/12/18 07:21:06;;;;;;;8.55;4.90;;;;;;;3.03;93.94;97275.69;4900388;29;20652;-39
2020/12/18 07:23:34;;;;;;;9.02;5.15;;;;;;;3.07;93.97;97272.19;4894992;29;20905;-39
2020/12/18 07:26:03;;;;;;;14.65;4.90;;;;;;;3.17;94.17;97276.22;4881131;29;20296;-39
2020/12/18 07:28:31;;;;;;;5.68;4.50;;;;;;;2.79;94.20;97206.81;4886645;29;20228;-39
2020/12/18 07:30:59;;;;;;;6.85;4.00;;;;;;;3.29;94.28;97283.69;4900189;29;20279;-39
2020/12/18 07:33:27;;;;;;;7.13;5.10;;;;;;;3.23;93.85;97273.53;4899004;29;20227;-39
2020/12/18 07:35:55;;;;;;;7.03;4.90;;;;;;;3.34;93.83;97271.56;4899758;29;20284;-45
2020/12/18 07:38:23;;;;;;;8.35;4.80;;;;;;;3.30;93.94;97269.94;4896590;29;20687;-45
2020/12/18 07:40:52;;;;;;;8.18;4.45;;;;;;;3.36;94.11;97269.78;4880706;29;20599;-45
2020/12/18 07:43:22;;;;;;;7.13;4.95;;;;;;;3.47;94.30;97266.97;4882987;29;22925;-44
2020/12/18 07:45:53;;;;;;;7.70;4.70;;;;;;;3.54;94.17;97266.78;4899800;29;20658;-45
2020/12/18 07:48:22;;;;;;;9.48;4.95;;;;;;;3.60;94.07;97269.22;4902803;29;20563;-45
2020/12/18 07:50:57;;;;;;;8.57;4.85;;;;;;;3.65;94.19;97263.94;4903159;29;20572;-45
2020/12/18 07:53:25;;;;;;;9.32;5.18;;;;;;;3.62;93.87;97259.75;4899933;29;20220;-45
2020/12/18 07:56:08;;;;;;;8.05;4.80;;;;;;;3.68;93.48;97257.00;4900995;29;20202;-43
2020/12/18 07:58:45;;;;;;;5.05;4.40;;;;;;;3.76;94.08;97254.25;4898878;29;20961;-42
2020/12/18 08:01:14;;;;;;;7.35;4.80;;;;;;;3.88;93.56;97247.06;4899138;29;20227;-43
2020/12/18 08:03:45;;;;;;;19.30;10.95;;;;;;;3.93;93.66;97269.22;4899603;29;20546;-43
2020/12/18 08:06:20;;;;;;;9.73;5.30;;;;;;;4.01;94.54;97258.75;4899612;29;20752;-43
2020/12/18 08:08:55;;;;;;;7.63;4.80;;;;;;;4.03;93.93;97267.25;4898922;29;20314;-43
2020/12/18 08:11:23;;;;;;;7.78;5.03;;;;;;;3.97;93.34;97267.41;4895742;29;20196;-43
2020/12/18 08:13:50;;;;;;;8.13;4.80;;;;;;;3.85;92.59;97272.91;4897718;29;20247;-43
2020/12/18 08:16:19;;;;;;;7.05;4.68;;;;;;;3.84;92.88;97268.63;4899458;29;20287;-43
2020/12/18 08:18:48;;;;;;;6.65;4.38;;;;;;;3.84;93.41;97278.06;4899096;29;20230;-43
2020/12/18 08:21:19;;;;;;;5.20;4.70;;;;;;;3.91;93.19;97267.59;4896165;29;20283;-43
2020/12/18 08:23:50;;;;;;;7.35;4.45;;;;;;;3.99;92.48;97266.50;4901602;29;20627;-43
2020/12/18 08:26:18;;;;;;;10.57;5.10;;;;;;;4.06;92.30;97267.19;4898409;29;20504;-38
2020/12/18 08:28:46;;;;;;;18.75;5.95;;;;;;;4.04;92.67;97268.94;4903401;29;20263;-44
2020/12/18 08:31:15;;;;;;;8.90;5.90;;;;;;;4.12;93.00;97269.59;4900229;29;20388;-43
2020/12/18 08:33:52;;;;;;;12.10;6.68;;;;;;;4.28;93.05;97263.19;4893027;29;20700;-43
2020/12/18 08:36:20;;;;;;;19.50;6.60;;;;;;;4.36;92.94;97267.22;4876780;29;20203;-48
2020/12/18 08:39:05;;;;;;;9.50;5.45;;;;;;;4.63;92.83;97270.75;4888000;29;20327;-43
2020/12/18 08:41:43;;;;;;;9.57;5.53;;;;;;;5.31;93.54;97278.19;4897045;29;20243;-43
2020/12/18 08:44:12;;;;;;;9.07;5.68;;;;;;;7.04;90.26;97274.81;4900009;29;20676;-43
2020/12/18 08:46:39;;;;;;;7.60;5.22;;;;;;;8.76;82.60;97262.50;4899256;29;20612;-44
2020/12/18 08:49:19;;;;;;;7.20;4.53;;;;;;;10.68;74.96;97250.56;4898885;29;20264;-44
2020/12/18 08:51:47;;;;;;;6.37;4.70;;;;;;;12.13;69.73;97255.47;4898532;29;20833;-44
2020/12/18 08:54:25;;;;;;;5.60;4.20;;;;;;;12.96;63.77;97261.81;4886644;29;20563;-44
2020/12/18 08:57:26;;;;;;;9.63;5.30;;;;;;;13.93;59.56;97244.28;4879950;29;20492;-44
2020/12/18 09:00:10;;;;;;;7.63;5.10;;;;;;;14.89;56.63;97256.13;4896385;29;20910;-44
2020/12/18 09:02:39;;;;;;;6.57;5.47;;;;;;;15.52;54.82;97249.03;4898970;29;21172;-48
2020/12/18 09:05:17;;;;;;;8.00;5.03;;;;;;;15.71;53.64;97250.25;4886202;29;20500;-45
2020/12/18 09:07:51;;;;;;;9.80;5.57;;;;;;;15.67;53.31;97248.78;4884502;29;20457;-46
2020/12/18 09:10:38;;;;;;;11.33;7.10;;;;;;;16.18;51.83;97246.78;4882834;29;20510;-45
2020/12/18 09:13:24;;;;;;;9.03;5.30;;;;;;;16.68;51.77;97246.50;4882784;29;21111;-44
2020/12/18 09:16:02;;;;;;;6.43;5.60;;;;;;;16.90;50.83;97241.28;4882696;29;20950;-45
2020/12/18 09:18:31;;;;;;;10.10;5.87;;;;;;;17.09;50.70;97241.56;4888539;29;20801;-45
2020/12/18 09:21:09;;;;;;;10.27;7.17;;;;;;;17.46;49.08;97235.13;4904396;29;20457;-45
2020/12/18 09:23:37;;;;;;;12.60;6.90;;;;;;;18.39;48.07;97234.44;4900905;29;20791;-46
2020/12/18 09:26:23;;;;;;;10.87;6.90;;;;;;;18.19;47.33;97236.97;4895138;29;20449;-46
2020/12/18 09:28:50;;;;;;;13.10;7.77;;;;;;;18.17;47.47;97239.75;4891890;29;20484;-46
2020/12/18 09:31:17;;;;;;;14.40;9.03;;;;;;;17.94;47.76;97237.31;4901609;29;20448;-45
2020/12/18 09:33:44;;;;;;;12.10;9.50;;;;;;;18.20;47.28;97222.88;4902148;29;20480;-45
2020/12/18 09:36:13;;;;;;;11.00;7.40;;;;;;;18.75;46.43;97239.28;4904455;29;20947;-45
2020/12/18 09:38:42;;;;;;;9.50;6.40;;;;;;;18.58;47.51;97239.81;4901875;29;20572;-45
2020/12/18 09:41:11;;;;;;;12.50;7.77;;;;;;;19.05;46.48;97239.31;4891895;29;20449;-39
2020/12/18 09:43:39;;;;;;;10.93;7.27;;;;;;;19.82;45.33;97232.56;4887587;29;20973;-39
2020/12/18 09:46:11;;;;;;;9.37;7.60;;;;;;;20.19;44.60;97229.16;4901276;29;20456;-39
2020/12/18 09:48:39;;;;;;;12.40;8.83;;;;;;;20.74;43.48;97231.09;4900868;29;20472;-39
2020/12/18 09:51:07;;;;;;;8.67;6.03;;;;;;;21.17;43.69;97227.94;4905012;29;20649;-40
2020/12/18 09:53:35;;;;;;;7.70;6.20;;;;;;;21.17;43.69;97227.94;4900293;29;20808;-40
2020/12/18 09:56:02;;;;;;;8.20;6.60;;;;;;;21.42;43.09;97217.53;4902433;29;20614;-46
2020/12/18 09:58:29;;;;;;;10.53;6.87;;;;;;;21.59;42.67;97218.59;4896931;29;21003;-45
2020/12/18 10:00:56;;;;;;;11.10;7.40;;;;;;;21.91;42.94;97219.00;4882880;29;20849;-45
2020/12/18 10:03:24;;;;;;;10.37;6.97;;;;;;;22.14;42.67;97213.13;4888573;29;20472;-45
2020/12/18 10:05:51;;;;;;;13.27;6.93;;;;;;;22.75;41.33;97216.66;4906830;28;20932;-39
2020/12/18 10:08:18;;;;;;;9.43;6.93;;;;;;;23.25;40.99;97209.75;4904157;29;20827;-40
2020/12/18 10:10:46;;;;;;;10.43;6.60;;;;;;;23.15;41.08;97206.38;4903524;29;20519;-39
2020/12/18 10:13:14;;;;;;;7.73;5.87;;;;;;;22.86;41.31;97203.97;4906507;29;20991;-39
2020/12/18 10:15:40;;;;;;;9.00;5.47;;;;;;;22.87;41.15;97204.81;4902823;29;20969;-41
2020/12/18 10:18:07;;;;;;;7.30;4.23;;;;;;;22.76;41.92;97202.44;4899104;29;20558;-39
2020/12/18 10:20:34;;;;;;;8.57;5.80;;;;;;;22.55;42.41;97193.97;4903579;29;20853;-40
2020/12/18 10:23:01;;;;;;;9.03;6.00;;;;;;;22.01;42.86;97194.06;4901012;29;20935;-40
2020/12/18 10:25:28;;;;;;;8.50;5.30;;;;;;;21.04;44.91;97185.91;4888940;29;20508;-45
2020/12/18 10:27:56;;;;;;;7.40;6.20;;;;;;;20.68;45.44;97191.97;4889586;29;20947;-39
2020/12/18 10:30:23;;;;;;;5.93;4.13;;;;;;;20.92;44.60;97187.06;4900876;29;20480;-40
2020/12/18 10:32:50;;;;;;;13.17;6.77;;;;;;;21.19;45.72;97184.47;4900379;29;20526;-40
2020/12/18 10:35:17;;;;;;;8.33;5.57;;;;;;;21.82;44.80;97172.16;4900288;29;20493;-41
2020/12/18 10:40:43;;;;;;;7.63;5.10;;;;;;;21.74;44.24;97170.28;4900468;29;20804;-46
2020/12/18 10:43:12;;;;;;;8.33;5.83;;;;;;;22.15;43.77;97169.69;4900999;29;20456;-45
2020/12/18 10:45:42;;;;;;;14.60;6.80;;;;;;;22.63;42.86;97163.00;4903735;29;20440;-45
2020/12/18 10:48:09;;;;;;;13.70;6.83;;;;;;;22.90;42.05;97162.84;4901310;29;20915;-45
2020/12/18 10:50:37;;;;;;;9.30;5.60;;;;;;;22.62;42.98;97157.84;4902175;29;20902;-46
2020/12/18 10:53:05;;;;;;;10.60;4.73;;;;;;;22.68;42.64;97162.53;4901800;29;20492;-45
2020/12/18 10:55:32;;;;;;;7.43;4.63;;;;;;;22.90;42.17;97154.03;4899370;29;20515;-47
2020/12/18 10:57:58;;;;;;;6.73;4.57;;;;;;;22.47;42.98;97137.31;4900309;29;20472;-48
2020/12/18 11:00:26;;;;;;;5.33;4.07;;;;;;;22.51;43.01;97157.28;4899806;29;20452;-48
2020/12/18 11:02:53;;;;;;;6.80;4.07;;;;;;;22.63;43.81;97154.22;4899860;29;20947;-48
2020/12/18 11:05:20;;;;;;;7.00;4.57;;;;;;;22.52;42.25;97142.03;4899494;29;21220;-49
2020/12/18 11:07:47;;;;;;;6.73;3.57;;;;;;;22.22;43.50;97138.91;4900528;29;20845;-48
2020/12/18 11:10:13;;;;;;;6.50;3.10;;;;;;;21.05;45.19;97134.63;4899600;29;21168;-48
2020/12/18 11:12:40;;;;;;;4.43;3.43;;;;;;;21.24;45.20;97134.53;4900880;29;20894;-48
2020/12/18 11:15:07;;;;;;;8.93;3.87;;;;;;;21.04;46.26;97132.97;4899383;29;21041;-48
2020/12/18 11:17:35;;;;;;;3.60;2.80;;;;;;;21.39;45.61;97127.78;4903029;29;21005;-42
2020/12/18 11:20:01;;;;;;;5.20;2.87;;;;;;;21.27;45.29;97128.94;4899328;29;20559;-42
2020/12/18 11:22:28;;;;;;;6.00;3.60;;;;;;;20.72;46.52;97124.56;4900853;29;20452;-42
2020/12/18 11:27:32;;;;;;;4.93;3.40;;;;;;;20.51;46.91;97129.19;4916425;28;21096;-48
2020/12/18 11:29:59;;;;;;;7.17;2.87;;;;;;;18.88;50.81;97125.63;4919448;28;20841;-48
2020/12/18 11:32:25;;;;;;;11.37;2.90;;;;;;;18.54;50.64;97117.13;4918302;28;20605;-48
2020/12/18 11:34:53;;;;;;;7.50;3.40;;;;;;;18.84;51.16;97116.28;4918858;28;20883;-48
2020/12/18 11:37:21;;;;;;;4.83;2.73;;;;;;;18.39;50.72;97049.88;4917919;28;20796;-48
2020/12/18 11:39:48;;;;;;;31.87;18.10;;;;;;;18.87;51.71;97127.41;4918032;28;21069;-47
2020/12/18 11:42:14;;;;;;;6.57;3.63;;;;;;;18.85;50.46;97121.44;4913446;28;20938;-47
2020/12/18 11:44:42;;;;;;;6.90;3.47;;;;;;;18.98;50.77;97122.06;4918227;28;20866;-48
2020/12/18 11:47:09;;;;;;;6.37;2.80;;;;;;;18.36;52.05;97121.31;4912947;28;21417;-47
2020/12/18 11:49:36;;;;;;;6.20;3.50;;;;;;;18.14;52.81;97121.41;4918186;28;20558;-47
2020/12/18 11:52:05;;;;;;;7.73;3.50;;;;;;;17.97;53.31;97100.91;4918959;28;20466;-47
2020/12/18 11:54:31;;;;;;;6.27;3.10;;;;;;;17.93;52.76;97119.72;4917884;28;20913;-48